createdAt,value
2023-04-08T00:01:30.925Z,77.18
2023-04-08T00:03:57.584Z,76.72
2023-04-08T00:06:24.391Z,76.62
2023-04-08T00:08:51.158Z,76.81
2023-04-08T00:11:17.692Z,76.29
2023-04-08T00:13:44.195Z,76.40
2023-04-08T00:16:10.692Z,76.38
2023-04-08T00:18:38.508Z,77.22
2023-04-08T00:21:05.064Z,77.06
2023-04-08T00:23:31.559Z,76.82
2023-04-08T00:25:58.140Z,77.14
2023-04-08T00:28:24.609Z,76.82
2023-04-08T00:30:52.653Z,76.68
2023-04-08T00:33:19.265Z,76.21
2023-04-08T00:35:46.334Z,76.87
2023-04-08T00:38:12.953Z,75.97
2023-04-08T00:40:39.467Z,76.52
2023-04-08T00:43:06.018Z,76.71
2023-04-08T00:45:33.750Z,76.32
2023-04-08T00:48:01.419Z,77.54
2023-04-08T00:50:27.992Z,77.92
2023-04-08T00:52:54.504Z,77.06
2023-04-08T00:55:21.083Z,77.30
2023-04-08T00:57:48.412Z,78.22
2023-04-08T01:00:16.529Z,78.40
2023-04-08T01:02:51.368Z,77.92
2023-04-08T01:05:23.709Z,78.52
2023-04-08T01:07:51.016Z,78.42
2023-04-08T01:10:33.476Z,77.74
2023-04-08T01:13:08.573Z,78.92
2023-04-08T01:15:37.755Z,79.06
2023-04-08T01:18:08.480Z,79.13
2023-04-08T01:20:35.756Z,78.22
2023-04-08T01:23:14.550Z,78.87
2023-04-08T01:25:47.346Z,78.77
2023-04-08T01:28:18.063Z,79.08
2023-04-08T01:30:47.860Z,79.04
2023-04-08T01:33:16.889Z,79.60
2023-04-08T01:35:45.709Z,79.58
2023-04-08T01:38:16.660Z,79.33
2023-04-08T01:40:43.934Z,79.08
2023-04-08T01:43:13.542Z,79.11
2023-04-08T01:45:40.117Z,79.20
2023-04-08T01:48:07.585Z,79.41
2023-04-08T01:50:35.248Z,79.44
2023-04-08T01:53:02.312Z,79.78
2023-04-08T01:55:29.307Z,80.19
2023-04-08T01:57:59.796Z,80.03
2023-04-08T02:00:29.487Z,80.17
2023-04-08T02:02:57.817Z,79.92
2023-04-08T02:05:24.625Z,80.06
2023-04-08T02:07:52.059Z,79.45
2023-04-08T02:10:18.641Z,79.60
2023-04-08T02:12:46.823Z,79.47
2023-04-08T02:15:14.275Z,79.03
2023-04-08T02:17:52.824Z,79.38
2023-04-08T02:20:26.982Z,80.73
2023-04-08T02:23:05.954Z,80.82
2023-04-08T02:25:40.054Z,80.20
2023-04-08T02:28:09.681Z,79.15
2023-04-08T02:30:37.869Z,79.76
2023-04-08T02:33:05.402Z,80.20
2023-04-08T02:35:32.888Z,79.33
2023-04-08T02:37:59.529Z,79.56
2023-04-08T02:40:26.255Z,80.17
2023-04-08T02:42:53.247Z,79.84
2023-04-08T02:45:20.269Z,79.52
2023-04-08T02:47:47.180Z,79.13
2023-04-08T02:50:13.656Z,79.16
2023-04-08T02:52:40.502Z,79.48
2023-04-08T02:55:09.955Z,79.41
2023-04-08T02:57:37.930Z,79.99
2023-04-08T03:00:05.356Z,80.42
2023-04-08T03:02:31.937Z,80.94
2023-04-08T03:04:58.841Z,80.89
2023-04-08T03:07:25.703Z,81.80
2023-04-08T03:09:52.441Z,80.87
2023-04-08T03:12:18.919Z,81.00
2023-04-08T03:14:45.400Z,82.22
2023-04-08T03:17:11.864Z,80.51
2023-04-08T03:19:38.318Z,80.63
2023-04-08T03:22:04.756Z,79.96
2023-04-08T03:24:31.249Z,79.39
2023-04-08T03:26:57.943Z,80.49
2023-04-08T03:29:24.435Z,81.05
2023-04-08T03:31:51.408Z,80.21
2023-04-08T03:34:18.003Z,82.04
2023-04-08T03:36:44.553Z,81.01
2023-04-08T03:39:11.146Z,80.73
2023-04-08T03:41:37.714Z,81.08
2023-04-08T03:44:04.821Z,80.83
2023-04-08T03:46:31.382Z,80.77
2023-04-08T03:48:57.887Z,80.76
2023-04-08T03:51:24.457Z,80.26
2023-04-08T03:53:50.927Z,80.14
2023-04-08T03:56:17.458Z,82.96
2023-04-08T03:58:43.984Z,81.63
2023-04-08T04:01:10.676Z,82.56
2023-04-08T04:03:37.346Z,81.61
2023-04-08T04:06:04.054Z,81.56
2023-04-08T04:08:30.584Z,82.85
2023-04-08T04:10:59.266Z,81.97
2023-04-08T04:13:25.812Z,83.37
2023-04-08T04:15:52.484Z,82.50
2023-04-08T04:18:19.084Z,82.54
2023-04-08T04:20:45.670Z,81.39
2023-04-08T04:23:12.261Z,81.14
2023-04-08T04:25:41.801Z,81.01
2023-04-08T04:28:10.048Z,80.89
2023-04-08T04:30:40.601Z,80.59
2023-04-08T04:33:07.544Z,80.46
2023-04-08T04:35:34.046Z,80.68
2023-04-08T04:38:00.714Z,80.54
2023-04-08T04:40:27.446Z,80.98
2023-04-08T04:42:53.946Z,80.94
2023-04-08T04:45:20.407Z,80.81
2023-04-08T04:47:47.015Z,82.87
2023-04-08T04:50:13.620Z,83.11
2023-04-08T04:52:40.419Z,82.32
2023-04-08T04:55:07.302Z,82.11
2023-04-08T04:57:33.894Z,82.36
2023-04-08T05:00:01.768Z,81.79
2023-04-08T05:02:29.407Z,82.25
2023-04-08T05:04:56.122Z,81.85
2023-04-08T05:07:22.809Z,82.03
2023-04-08T05:09:49.315Z,82.75
2023-04-08T05:12:16.285Z,83.22
2023-04-08T05:14:42.762Z,81.94
2023-04-08T05:17:09.270Z,81.84
2023-04-08T05:19:35.796Z,82.53
2023-04-08T05:22:02.297Z,82.20
2023-04-08T05:24:28.783Z,82.27
2023-04-08T05:26:55.273Z,82.25
2023-04-08T05:29:22.044Z,81.74
2023-04-08T05:31:48.636Z,81.77
2023-04-08T05:34:16.041Z,81.47
2023-04-08T05:36:42.776Z,81.75
2023-04-08T05:39:09.284Z,81.54
2023-04-08T05:41:36.127Z,81.31
2023-04-08T05:44:02.679Z,80.95
2023-04-08T05:46:29.268Z,81.26
2023-04-08T05:48:55.965Z,80.64
2023-04-08T05:51:22.439Z,80.53
2023-04-08T05:53:48.945Z,80.41
2023-04-08T05:56:15.472Z,80.10
2023-04-08T05:58:41.954Z,80.14
2023-04-08T06:01:08.482Z,80.70
2023-04-08T06:03:35.117Z,80.55
2023-04-08T06:06:01.809Z,80.81
2023-04-08T06:08:28.382Z,80.60
2023-04-08T06:10:54.872Z,80.38
2023-04-08T06:13:22.041Z,79.86
2023-04-08T06:15:51.234Z,79.89
2023-04-08T06:18:18.046Z,79.42
2023-04-08T06:20:44.594Z,79.24
2023-04-08T06:23:11.169Z,79.14
2023-04-08T06:25:37.623Z,78.46
2023-04-08T06:28:04.216Z,78.11
2023-04-08T06:30:30.691Z,78.35
2023-04-08T06:32:57.184Z,78.07
2023-04-08T06:35:23.696Z,77.87
2023-04-08T06:37:50.296Z,77.17
2023-04-08T06:40:16.746Z,77.00
2023-04-08T06:42:44.560Z,76.14
2023-04-08T06:45:11.392Z,75.37
2023-04-08T06:47:37.899Z,75.02
2023-04-08T06:50:05.291Z,74.21
2023-04-08T06:52:31.865Z,73.58
2023-04-08T06:54:58.363Z,73.25
2023-04-08T06:57:24.965Z,73.11
2023-04-08T06:59:53.075Z,71.96
2023-04-08T07:02:19.743Z,71.44
2023-04-08T07:04:47.007Z,71.39
2023-04-08T07:07:13.610Z,70.61
2023-04-08T07:09:41.542Z,70.13
2023-04-08T07:12:07.986Z,69.21
2023-04-08T07:14:34.486Z,67.60
2023-04-08T07:17:00.963Z,68.44
2023-04-08T07:19:27.713Z,68.18
2023-04-08T07:21:54.265Z,67.46
2023-04-08T07:24:21.097Z,67.32
2023-04-08T07:26:47.913Z,65.81
2023-04-08T07:29:14.579Z,66.23
2023-04-08T07:31:41.130Z,65.50
2023-04-08T07:34:07.576Z,65.22
2023-04-08T07:36:34.124Z,64.79
2023-04-08T07:39:00.857Z,64.90
2023-04-08T07:41:27.400Z,64.78
2023-04-08T07:43:53.971Z,65.14
2023-04-08T07:46:21.286Z,63.47
2023-04-08T07:48:47.856Z,64.22
2023-04-08T07:51:14.932Z,62.54
2023-04-08T07:53:41.576Z,63.04
2023-04-08T07:56:13.032Z,62.78
2023-04-08T07:58:40.549Z,61.25
2023-04-08T08:01:21.242Z,61.01
2023-04-08T08:03:52.184Z,60.43
2023-04-08T08:06:19.373Z,58.57
2023-04-08T08:08:45.894Z,57.50
2023-04-08T08:11:12.627Z,56.52
2023-04-08T08:13:39.132Z,55.75
2023-04-08T08:16:09.248Z,56.78
2023-04-08T08:18:36.955Z,56.55
2023-04-08T08:21:03.985Z,54.13
2023-04-08T08:23:30.487Z,55.21
2023-04-08T08:26:01.900Z,54.39
2023-04-08T08:28:28.844Z,51.59
2023-04-08T08:30:55.360Z,51.24
2023-04-08T08:33:21.982Z,50.93
2023-04-08T08:35:48.425Z,50.60
2023-04-08T08:38:15.057Z,50.01
2023-04-08T08:40:41.563Z,49.15
2023-04-08T08:43:09.531Z,48.38
2023-04-08T08:45:42.319Z,46.76
2023-04-08T08:48:09.422Z,46.64
2023-04-08T08:50:36.236Z,44.87
2023-04-08T08:53:03.502Z,43.82
2023-04-08T08:55:50.882Z,45.05
2023-04-08T08:58:19.072Z,45.26
2023-04-08T09:00:45.565Z,44.09
2023-04-08T09:03:16.625Z,44.88
2023-04-08T09:06:00.764Z,43.29
2023-04-08T09:08:30.630Z,43.07
2023-04-08T09:11:12.432Z,42.46
2023-04-08T09:13:39.272Z,41.53
2023-04-08T09:16:10.893Z,41.44
2023-04-08T09:18:38.879Z,41.62
2023-04-08T09:21:06.827Z,40.42
2023-04-08T09:23:46.273Z,40.17
2023-04-08T09:26:16.820Z,38.86
2023-04-08T09:28:45.191Z,39.74
2023-04-08T09:31:41.517Z,38.99
2023-04-08T09:34:13.508Z,40.19
2023-04-08T09:36:40.048Z,39.45
2023-04-08T09:39:07.805Z,38.46
2023-04-08T09:41:36.164Z,37.66
2023-04-08T09:44:08.094Z,38.45
2023-04-08T09:46:49.747Z,38.25
2023-04-08T09:49:27.316Z,39.16
2023-04-08T09:52:07.070Z,40.21
2023-04-08T09:54:59.771Z,39.84
2023-04-08T09:57:58.713Z,41.06
2023-04-08T10:00:32.464Z,41.47
2023-04-08T10:03:21.084Z,41.56
2023-04-08T10:05:49.303Z,41.28
2023-04-08T10:08:16.448Z,41.52
2023-04-08T10:10:43.381Z,41.84
2023-04-08T10:13:10.398Z,41.55
2023-04-08T10:15:38.452Z,41.64
2023-04-08T10:18:05.843Z,41.05
2023-04-08T10:20:38.618Z,40.73
2023-04-08T10:23:15.704Z,41.01
2023-04-08T10:25:42.670Z,40.42
2023-04-08T10:28:12.143Z,40.44
2023-04-08T10:30:45.709Z,40.34
2023-04-08T10:33:40.858Z,39.56
2023-04-08T10:36:08.596Z,40.07
2023-04-08T10:38:35.769Z,40.35
2023-04-08T10:41:02.708Z,40.39
2023-04-08T10:43:34.228Z,40.84
2023-04-08T10:46:01.581Z,40.85
2023-04-08T10:48:31.257Z,40.37
2023-04-08T10:51:02.767Z,40.61
2023-04-08T10:53:31.213Z,41.00
2023-04-08T10:56:08.126Z,41.40
2023-04-08T10:58:36.537Z,41.81
2023-04-08T11:01:05.637Z,42.11
2023-04-08T11:03:33.991Z,42.78
2023-04-08T11:06:01.952Z,42.72
2023-04-08T11:08:32.871Z,42.54
2023-04-08T11:11:03.086Z,42.99
2023-04-08T11:13:30.896Z,43.34
2023-04-08T11:15:59.956Z,43.75
2023-04-08T11:18:27.419Z,43.81
2023-04-08T11:20:54.521Z,43.99
2023-04-08T11:23:22.916Z,44.59
2023-04-08T11:25:50.814Z,45.44
2023-04-08T11:28:18.339Z,45.65
2023-04-08T11:30:45.239Z,45.47
2023-04-08T11:33:13.336Z,45.54
2023-04-08T11:35:41.764Z,45.30
2023-04-08T11:38:09.580Z,45.29
2023-04-08T11:40:36.547Z,44.76
2023-04-08T11:43:11.071Z,45.13
2023-04-08T11:45:41.700Z,45.04
2023-04-08T11:48:12.816Z,44.90
2023-04-08T11:50:40.373Z,44.87
2023-04-08T11:53:25.431Z,45.08
2023-04-08T11:55:52.544Z,44.61
2023-04-08T11:58:19.332Z,43.89
2023-04-08T12:00:46.025Z,43.32
2023-04-08T12:03:13.559Z,42.42
2023-04-08T12:05:40.872Z,41.85
2023-04-08T12:08:07.355Z,41.00
2023-04-08T12:10:33.886Z,40.22
2023-04-08T12:13:00.388Z,38.96
2023-04-08T12:15:26.919Z,38.58
2023-04-08T12:17:53.585Z,39.22
2023-04-08T12:20:20.279Z,38.57
2023-04-08T12:22:47.122Z,38.21
2023-04-08T12:25:13.544Z,37.72
2023-04-08T12:27:39.998Z,37.73
2023-04-08T12:30:07.333Z,37.37
2023-04-08T12:32:34.839Z,37.86
2023-04-08T12:35:01.446Z,38.32
2023-04-08T12:37:28.685Z,38.49
2023-04-08T12:39:55.437Z,38.46
2023-04-08T12:42:22.049Z,38.38
2023-04-08T12:44:48.532Z,38.31
2023-04-08T12:47:15.007Z,38.70
2023-04-08T12:52:10.864Z,38.34
2023-04-08T12:54:37.444Z,36.36
2023-04-08T12:57:04.779Z,35.69
2023-04-08T12:59:32.237Z,34.33
2023-04-08T13:01:58.970Z,31.78
2023-04-08T13:04:25.487Z,30.90
2023-04-08T13:06:52.296Z,31.57
2023-04-08T13:09:18.785Z,32.79
2023-04-08T13:11:45.233Z,32.11
2023-04-08T13:14:12.581Z,30.11
2023-04-08T13:16:39.141Z,26.44
2023-04-08T13:19:05.597Z,26.35
2023-04-08T13:21:32.375Z,26.09
2023-04-08T13:23:58.927Z,26.48
2023-04-08T13:26:25.457Z,27.20
2023-04-08T13:28:57.291Z,27.19
2023-04-08T13:31:24.682Z,28.12
2023-04-08T13:33:51.219Z,28.79
2023-04-08T13:36:17.755Z,29.69
2023-04-08T13:38:45.771Z,29.80
2023-04-08T13:41:12.424Z,30.68
2023-04-08T13:43:38.877Z,30.80
2023-04-08T13:46:05.536Z,30.82
2023-04-08T13:48:32.100Z,30.80
2023-04-08T13:50:58.563Z,31.35
2023-04-08T13:53:25.125Z,32.29
2023-04-08T13:55:55.208Z,33.32
2023-04-08T13:58:24.181Z,34.54
2023-04-08T14:00:54.370Z,34.44
2023-04-08T14:03:21.068Z,35.08
2023-04-08T14:05:47.668Z,35.66
2023-04-08T14:08:14.127Z,36.58
2023-04-08T14:10:42.267Z,37.27
2023-04-08T14:13:09.155Z,37.01
2023-04-08T14:15:36.170Z,38.80
2023-04-08T14:18:02.807Z,38.72
2023-04-08T14:20:29.953Z,39.07
2023-04-08T14:22:56.765Z,39.58
2023-04-08T14:25:23.774Z,40.19
2023-04-08T14:27:58.035Z,40.60
2023-04-08T14:30:27.069Z,40.91
2023-04-08T14:32:53.964Z,41.11
2023-04-08T14:35:20.624Z,41.18
2023-04-08T14:37:47.122Z,42.00
2023-04-08T14:40:13.684Z,42.51
2023-04-08T14:42:40.245Z,43.09
2023-04-08T14:45:07.431Z,43.28
2023-04-08T14:47:33.967Z,43.59
2023-04-08T14:50:00.448Z,44.05
2023-04-08T14:52:27.386Z,44.39
2023-04-08T14:54:53.931Z,44.65
2023-04-08T14:57:20.441Z,45.07
2023-04-08T14:59:46.932Z,45.54
2023-04-08T15:02:13.643Z,45.95
2023-04-08T15:04:40.444Z,46.11
2023-04-08T15:07:07.584Z,46.14
2023-04-08T15:09:34.093Z,46.60
2023-04-08T15:12:01.384Z,47.08
2023-04-08T15:14:27.896Z,47.46
2023-04-08T15:16:54.403Z,47.55
2023-04-08T15:19:21.334Z,47.42
2023-04-08T15:21:47.842Z,47.20
2023-04-08T15:24:14.376Z,47.64
2023-04-08T15:26:41.119Z,47.91
2023-04-08T15:29:07.853Z,48.61
2023-04-08T15:31:35.195Z,48.89
2023-04-08T15:34:02.871Z,49.16
2023-04-08T15:36:30.233Z,49.34
2023-04-08T15:38:56.964Z,49.57
2023-04-08T15:41:23.471Z,49.55
2023-04-08T15:43:50.255Z,49.53
2023-04-08T15:46:21.387Z,49.76
2023-04-08T15:48:48.607Z,50.38
2023-04-08T15:51:15.678Z,50.38
2023-04-08T15:53:42.859Z,50.39
2023-04-08T15:56:13.922Z,50.13
2023-04-08T15:58:40.827Z,50.05
2023-04-08T16:01:07.345Z,50.58
2023-04-08T16:03:34.474Z,50.96
2023-04-08T16:06:01.128Z,50.82
2023-04-08T16:08:27.704Z,50.97
2023-04-08T16:11:01.294Z,50.90
2023-04-08T16:13:29.055Z,51.24
2023-04-08T16:15:56.674Z,51.27
2023-04-08T16:18:23.184Z,51.23
2023-04-08T16:20:50.077Z,51.21
2023-04-08T16:23:17.884Z,51.68
2023-04-08T16:25:45.206Z,51.45
2023-04-08T16:28:11.942Z,51.17
2023-04-08T16:30:38.853Z,51.34
2023-04-08T16:33:06.292Z,51.35
2023-04-08T16:35:32.889Z,51.56
2023-04-08T16:37:59.613Z,51.83
2023-04-08T16:40:26.268Z,51.88
2023-04-08T16:42:52.970Z,51.87
2023-04-08T16:45:19.593Z,52.09
2023-04-08T16:47:46.285Z,51.90
2023-04-08T16:50:12.946Z,52.13
2023-04-08T16:52:39.480Z,52.13
2023-04-08T16:55:06.635Z,52.71
2023-04-08T16:57:33.198Z,52.41
2023-04-08T16:59:59.705Z,52.65
2023-04-08T17:02:26.631Z,52.64
2023-04-08T17:04:53.229Z,52.23
2023-04-08T17:07:19.899Z,52.84
2023-04-08T17:09:51.519Z,52.75
2023-04-08T17:12:18.162Z,53.01
2023-04-08T17:14:44.686Z,52.91
2023-04-08T17:17:11.374Z,53.81
2023-04-08T17:19:38.336Z,53.91
2023-04-08T17:22:04.879Z,54.05
2023-04-08T17:24:31.714Z,54.01
2023-04-08T17:26:58.620Z,54.19
2023-04-08T17:29:25.713Z,54.26
2023-04-08T17:31:52.534Z,54.36
2023-04-08T17:34:19.158Z,54.51
2023-04-08T17:36:45.978Z,54.71
2023-04-08T17:39:12.405Z,55.59
2023-04-08T17:41:40.733Z,54.89
2023-04-08T17:44:08.004Z,55.24
2023-04-08T17:46:34.588Z,55.30
2023-04-08T17:49:01.174Z,55.31
2023-04-08T17:51:28.872Z,55.53
2023-04-08T17:53:56.156Z,55.34
2023-04-08T17:56:23.611Z,55.70
2023-04-08T17:58:50.377Z,55.90
2023-04-08T18:01:17.252Z,56.83
2023-04-08T18:03:44.771Z,57.43
2023-04-08T18:06:11.233Z,57.24
2023-04-08T18:08:37.923Z,56.79
2023-04-08T18:11:07.192Z,56.54
2023-04-08T18:13:33.808Z,57.04
2023-04-08T18:16:00.378Z,56.33
2023-04-08T18:18:26.892Z,56.63
2023-04-08T18:20:53.528Z,57.06
2023-04-08T18:23:20.065Z,56.89
2023-04-08T18:25:47.420Z,56.88
2023-04-08T18:28:14.080Z,57.37
2023-04-08T18:30:40.730Z,56.91
2023-04-08T18:33:08.596Z,57.39
2023-04-08T18:35:35.232Z,58.56
2023-04-08T18:38:01.734Z,58.65
2023-04-08T18:40:28.264Z,58.73
2023-04-08T18:42:54.793Z,57.75
2023-04-08T18:45:21.292Z,57.44
2023-04-08T18:47:47.770Z,58.16
2023-04-08T18:50:14.586Z,58.28
2023-04-08T18:52:41.172Z,57.70
2023-04-08T18:55:08.108Z,58.24
2023-04-08T18:57:34.609Z,58.78
2023-04-08T19:00:01.410Z,58.12
2023-04-08T19:02:28.008Z,58.39
2023-04-08T19:04:55.868Z,58.83
2023-04-08T19:07:23.376Z,59.48
2023-04-08T19:09:49.799Z,59.74
2023-04-08T19:12:16.501Z,59.18
2023-04-08T19:14:43.054Z,59.37
2023-04-08T19:17:09.857Z,59.25
2023-04-08T19:19:36.484Z,59.11
2023-04-08T19:22:05.826Z,59.07
2023-04-08T19:24:33.231Z,58.60
2023-04-08T19:26:59.902Z,59.29
2023-04-08T19:29:29.682Z,58.26
2023-04-08T19:31:57.533Z,58.61
2023-04-08T19:34:24.032Z,59.12
2023-04-08T19:36:50.614Z,58.91
2023-04-08T19:39:17.141Z,58.66
2023-04-08T19:41:43.649Z,58.80
2023-04-08T19:44:10.379Z,59.06
2023-04-08T19:46:37.439Z,58.98
2023-04-08T19:49:04.459Z,59.73
2023-04-08T19:51:32.833Z,59.17
2023-04-08T19:53:59.452Z,59.53
2023-04-08T19:56:26.466Z,59.84
2023-04-08T19:58:53.564Z,59.25
2023-04-08T20:01:20.693Z,60.25
2023-04-08T20:03:50.395Z,60.09
2023-04-08T20:06:20.213Z,60.77
2023-04-08T20:08:46.835Z,60.01
2023-04-08T20:11:13.377Z,60.78
2023-04-08T20:13:40.216Z,61.19
2023-04-08T20:16:07.560Z,61.34
2023-04-08T20:18:34.399Z,62.02
2023-04-08T20:21:01.108Z,61.50
2023-04-08T20:23:28.535Z,62.24
2023-04-08T20:25:55.174Z,61.09
2023-04-08T20:28:21.726Z,61.79
2023-04-08T20:30:50.121Z,62.21
2023-04-08T20:33:16.889Z,62.67
2023-04-08T20:35:43.869Z,62.70
2023-04-08T20:38:10.381Z,61.68
2023-04-08T20:40:37.083Z,61.15
2023-04-08T20:43:03.753Z,60.78
2023-04-08T20:45:30.805Z,60.66
2023-04-08T20:47:57.404Z,61.14
2023-04-08T20:50:24.720Z,60.68
2023-04-08T20:52:51.736Z,61.12
2023-04-08T20:55:18.259Z,61.71
2023-04-08T20:57:44.850Z,61.35
2023-04-08T21:00:13.708Z,62.30
2023-04-08T21:02:40.462Z,64.44
2023-04-08T21:05:07.738Z,62.86
2023-04-08T21:07:35.014Z,62.21
2023-04-08T21:10:01.575Z,62.93
2023-04-08T21:12:28.083Z,62.58
2023-04-08T21:14:54.589Z,63.03
2023-04-08T21:17:21.111Z,63.11
2023-04-08T21:19:47.586Z,64.09
2023-04-08T21:22:14.048Z,63.84
2023-04-08T21:24:40.721Z,63.93
2023-04-08T21:27:07.266Z,64.03
2023-04-08T21:29:33.736Z,64.00
2023-04-08T21:32:00.483Z,63.79
2023-04-08T21:34:27.227Z,63.41
2023-04-08T21:36:53.756Z,63.02
2023-04-08T21:39:20.538Z,63.62
2023-04-08T21:41:48.162Z,63.27
2023-04-08T21:44:15.709Z,63.26
2023-04-08T21:46:42.354Z,63.12
2023-04-08T21:49:11.213Z,63.42
2023-04-08T21:51:39.191Z,63.20
2023-04-08T21:54:06.172Z,63.27
2023-04-08T21:56:32.864Z,63.25
2023-04-08T21:58:59.609Z,62.93
2023-04-08T22:01:26.927Z,63.32
2023-04-08T22:03:55.473Z,62.95
2023-04-08T22:06:31.459Z,63.25
2023-04-08T22:08:59.314Z,62.90
2023-04-08T22:11:25.970Z,63.57
2023-04-08T22:13:52.523Z,63.97
2023-04-08T22:16:19.129Z,63.70
2023-04-08T22:18:45.674Z,63.68
2023-04-08T22:21:12.453Z,63.84
2023-04-08T22:23:39.094Z,63.85
2023-04-08T22:26:05.605Z,64.12
2023-04-08T22:28:34.230Z,63.97
2023-04-08T22:31:01.286Z,64.63
2023-04-08T22:33:28.048Z,63.51
2023-04-08T22:35:57.644Z,63.29
2023-04-08T22:38:24.550Z,63.07
2023-04-08T22:40:51.184Z,62.98
2023-04-08T22:43:17.617Z,62.98
2023-04-08T22:45:44.156Z,63.20
2023-04-08T22:48:10.680Z,63.18
2023-04-08T22:50:37.194Z,63.16
2023-04-08T22:53:04.011Z,63.28
2023-04-08T22:55:30.767Z,63.48
2023-04-08T22:57:57.241Z,63.54
2023-04-08T23:00:23.954Z,63.46
2023-04-08T23:02:50.761Z,63.61
2023-04-08T23:05:17.640Z,63.78
2023-04-08T23:07:44.231Z,63.86
2023-04-08T23:10:11.037Z,63.51
2023-04-08T23:12:37.536Z,64.09
2023-04-08T23:15:04.570Z,64.00
2023-04-08T23:17:31.128Z,64.13
2023-04-08T23:19:57.829Z,64.30
2023-04-08T23:22:24.380Z,64.50
2023-04-08T23:24:50.869Z,64.57
2023-04-08T23:27:17.403Z,64.52
2023-04-08T23:29:43.860Z,64.22
2023-04-08T23:32:10.418Z,63.78
2023-04-08T23:34:37.636Z,63.84
2023-04-08T23:37:04.464Z,63.65
2023-04-08T23:39:31.903Z,63.22
2023-04-08T23:41:58.492Z,63.37
2023-04-08T23:44:25.040Z,63.37
2023-04-08T23:46:51.581Z,63.41
2023-04-08T23:49:18.125Z,63.37
2023-04-08T23:51:44.701Z,63.51
2023-04-08T23:54:11.305Z,63.38
2023-04-08T23:56:41.148Z,63.49
2023-04-08T23:59:07.707Z,63.62
